Time;durP1;ratioP1;P1;durP2;ratioP2;P2;SDS_P1;SDS_P2;PMS_P1;PMS_P2;Temp;Humidity;BMP_temperature;BMP_pressure;BME280_temperature;BME280_humidity;BME280_pressure;Samples;Min_cycle;Max_cycle;Signal;HPM_P1;HPM_P2
2021/12/21 00:01:43;;;;;;;0.55;0.20;;;;;;;;;;4195581;28;20127;-42
2021/12/21 00:03:44;;;;;;;0.15;0.10;;;;;;;;;;4214029;28;20051;-43
2021/12/21 00:05:45;;;;;;;0.57;0.10;;;;;;;;;;4213712;28;20059;-43
2021/12/21 00:07:50;;;;;;;0.10;0.10;;;;;;;;;;4213162;28;20044;-42
2021/12/21 00:09:51;;;;;;;0.20;0.20;;;;;;;;;;4214061;28;20044;-42
2021/12/21 00:11:52;;;;;;;1.30;0.20;;;;;;;;;;4213282;28;20051;-42
2021/12/21 00:14:06;;;;;;;0.20;0.10;;;;;;;;;;4213786;28;20059;-43
2021/12/21 00:18:27;;;;;;;0.63;0.10;;;;;;;;;;4213527;28;20095;-43
2021/12/21 00:20:44;;;;;;;0.10;0.10;;;;;;;;;;4213701;28;20048;-42
2021/12/21 00:24:52;;;;;;;0.10;0.10;;;;;;;;;;4213559;28;20105;-43
2021/12/21 00:26:53;;;;;;;0.40;0.20;;;;;;;;;;4195446;28;20488;-41
2021/12/21 00:28:59;;;;;;;0.60;0.20;;;;;;;;;;4195560;28;20117;-43
2021/12/21 00:31:00;;;;;;;0.35;0.13;;;;;;;;;;4213807;28;20132;-42
2021/12/21 00:33:01;;;;;;;0.28;0.10;;;;;;;;;;4213447;28;20506;-42
2021/12/21 00:35:03;;;;;;;0.20;0.17;;;;;;;;;;4213717;28;20149;-43
2021/12/21 00:37:04;;;;;;;0.25;0.10;;;;;;;;;;4212954;28;20043;-42
2021/12/21 00:39:07;;;;;;;0.20;0.17;;;;;;;;;;4213439;28;20056;-42
2021/12/21 00:41:09;;;;;;;0.20;0.10;;;;;;;;;;4213637;28;20144;-42
2021/12/21 00:43:10;;;;;;;0.10;0.10;;;;;;;;;;4217960;28;20391;-43
2021/12/21 00:45:10;;;;;;;0.80;0.22;;;;;;;;;;4230125;28;20143;-43
2021/12/21 00:47:14;;;;;;;0.40;0.13;;;;;;;;;;4230362;28;20104;-42
2021/12/21 00:49:16;;;;;;;0.30;0.10;;;;;;;;;;4230216;28;20047;-43
2021/12/21 00:51:18;;;;;;;0.10;0.10;;;;;;;;;;4230212;28;20043;-43
2021/12/21 00:53:19;;;;;;;0.20;0.10;;;;;;;;;;4229621;28;20051;-43
2021/12/21 00:55:21;;;;;;;0.40;0.40;;;;;;;;;;4230059;28;20181;-43
2021/12/21 00:57:22;;;;;;;0.22;0.10;;;;;;;;;;4230058;28;20055;-43
2021/12/21 00:59:22;;;;;;;0.30;0.10;;;;;;;;;;4230094;28;20059;-43
2021/12/21 01:01:23;;;;;;;0.38;0.10;;;;;;;;;;4229962;28;20131;-42
2021/12/21 01:03:24;;;;;;;0.10;0.10;;;;;;;;;;4230205;28;20055;-43
2021/12/21 01:05:33;;;;;;;0.10;0.10;;;;;;;;;;4230273;28;20550;-42
2021/12/21 01:07:40;;;;;;;0.22;0.10;;;;;;;;;;4229573;28;20055;-42
2021/12/21 01:12:02;;;;;;;0.25;0.20;;;;;;;;;;4229968;28;20051;-43
2021/12/21 01:16:20;;;;;;;0.20;0.15;;;;;;;;;;4229984;28;20128;-42
2021/12/21 01:18:27;;;;;;;0.00;0.00;;;;;;;;;;4229992;28;20048;-43
2021/12/21 01:20:34;;;;;;;0.20;0.20;;;;;;;;;;4229946;28;20415;-42
2021/12/21 01:23:03;;;;;;;0.08;0.08;;;;;;;;;;4229422;28;20105;-42
2021/12/21 01:31:36;;;;;;;0.22;0.20;;;;;;;;;;4233049;28;20044;-43
2021/12/21 01:33:51;;;;;;;0.03;0.03;;;;;;;;;;4233424;28;20040;-42
2021/12/21 01:35:54;;;;;;;0.10;0.10;;;;;;;;;;4233247;28;20055;-42
2021/12/21 01:42:13;;;;;;;0.17;0.10;;;;;;;;;;4230749;28;20170;-43
2021/12/21 01:51:13;;;;;;;0.20;0.20;;;;;;;;;;4199167;28;20457;-42
2021/12/21 01:53:14;;;;;;;0.65;0.30;;;;;;;;;;4198793;28;20095;-42
2021/12/21 01:55:15;;;;;;;0.32;0.10;;;;;;;;;;4199113;28;20131;-42
2021/12/21 01:57:16;;;;;;;0.50;0.30;;;;;;;;;;4181045;28;20040;-42
2021/12/21 01:59:17;;;;;;;0.20;0.10;;;;;;;;;;4199097;28;20041;-42
2021/12/21 02:01:20;;;;;;;1.60;0.20;;;;;;;;;;4199079;28;20074;-42
2021/12/21 02:03:21;;;;;;;0.10;0.10;;;;;;;;;;4198876;28;20052;-42
2021/12/21 02:05:22;;;;;;;0.20;0.20;;;;;;;;;;4198724;28;20048;-42
2021/12/21 02:07:23;;;;;;;0.47;0.20;;;;;;;;;;4198272;28;20056;-43
2021/12/21 02:09:32;;;;;;;0.13;0.10;;;;;;;;;;4199255;28;20108;-42
2021/12/21 02:11:33;;;;;;;0.10;0.10;;;;;;;;;;4198803;28;20048;-43
2021/12/21 02:13:37;;;;;;;0.20;0.10;;;;;;;;;;4197468;28;20066;-42
2021/12/21 02:15:38;;;;;;;0.30;0.20;;;;;;;;;;4198639;28;20109;-42
2021/12/21 02:17:51;;;;;;;0.10;0.10;;;;;;;;;;4215095;28;20051;-43
2021/12/21 02:20:00;;;;;;;0.35;0.25;;;;;;;;;;4215451;28;20048;-42
2021/12/21 02:22:12;;;;;;;0.10;0.10;;;;;;;;;;4215189;28;20109;-43
2021/12/21 02:24:18;;;;;;;0.50;0.30;;;;;;;;;;4215433;28;20062;-42
2021/12/21 02:26:36;;;;;;;0.30;0.20;;;;;;;;;;4215620;28;20048;-43
2021/12/21 02:28:58;;;;;;;0.20;0.10;;;;;;;;;;4215240;28;20044;-42
2021/12/21 02:30:58;;;;;;;0.30;0.13;;;;;;;;;;4197121;28;20381;-42
2021/12/21 02:32:59;;;;;;;0.10;0.10;;;;;;;;;;4214994;28;20062;-43
2021/12/21 02:35:00;;;;;;;0.20;0.17;;;;;;;;;;4214412;28;20084;-42
2021/12/21 02:37:01;;;;;;;0.20;0.20;;;;;;;;;;4214702;28;20113;-34
2021/12/21 02:39:04;;;;;;;0.20;0.10;;;;;;;;;;4197216;28;20480;-35
2021/12/21 02:41:07;;;;;;;0.40;0.10;;;;;;;;;;4215250;28;20052;-35
2021/12/21 02:43:10;;;;;;;0.10;0.10;;;;;;;;;;4215245;28;20051;-35
2021/12/21 02:45:11;;;;;;;0.10;0.10;;;;;;;;;;4215134;28;20094;-35
2021/12/21 02:47:12;;;;;;;0.73;0.20;;;;;;;;;;4215243;28;20092;-35
2021/12/21 02:49:14;;;;;;;0.55;0.10;;;;;;;;;;4215147;28;20054;-36
2021/12/21 02:51:15;;;;;;;0.77;0.20;;;;;;;;;;4197115;28;20466;-34
2021/12/21 02:53:16;;;;;;;0.47;0.20;;;;;;;;;;4196737;28;20087;-34
2021/12/21 02:55:18;;;;;;;0.10;0.10;;;;;;;;;;4215348;28;20048;-35
2021/12/21 02:57:19;;;;;;;0.43;0.10;;;;;;;;;;4215104;28;20055;-35
2021/12/21 02:59:20;;;;;;;0.10;0.10;;;;;;;;;;4215045;28;20616;-35
2021/12/21 03:01:21;;;;;;;0.45;0.20;;;;;;;;;;4214958;28;20150;-35
2021/12/21 03:03:22;;;;;;;0.30;0.20;;;;;;;;;;4215068;28;20101;-35
2021/12/21 03:05:23;;;;;;;0.43;0.20;;;;;;;;;;4214856;28;20092;-35
2021/12/21 03:09:54;;;;;;;0.45;0.20;;;;;;;;;;4215189;28;20085;-35
2021/12/21 03:12:10;;;;;;;0.10;0.10;;;;;;;;;;4214864;28;20044;-35
2021/12/21 03:14:11;;;;;;;0.30;0.10;;;;;;;;;;4214850;28;20047;-35
2021/12/21 03:16:12;;;;;;;0.22;0.20;;;;;;;;;;4214655;28;20101;-35
2021/12/21 03:18:13;;;;;;;0.10;0.10;;;;;;;;;;4214874;28;20132;-35
2021/12/21 03:20:14;;;;;;;0.10;0.10;;;;;;;;;;4214685;28;20483;-34
2021/12/21 03:22:17;;;;;;;0.10;0.10;;;;;;;;;;4214110;28;20066;-35
2021/12/21 03:24:18;;;;;;;0.10;0.10;;;;;;;;;;4214652;28;20067;-35
2021/12/21 03:26:19;;;;;;;0.35;0.10;;;;;;;;;;4214503;28;20048;-34
2021/12/21 03:28:20;;;;;;;0.28;0.10;;;;;;;;;;4196355;28;20508;-34
2021/12/21 03:30:21;;;;;;;0.32;0.10;;;;;;;;;;4214496;28;20054;-34
2021/12/21 03:32:22;;;;;;;0.32;0.10;;;;;;;;;;4214467;28;20060;-34
2021/12/21 03:34:24;;;;;;;0.15;0.15;;;;;;;;;;4214692;28;20398;-35
2021/12/21 03:36:25;;;;;;;0.20;0.20;;;;;;;;;;4214339;28;20051;-34
2021/12/21 03:38:26;;;;;;;0.17;0.17;;;;;;;;;;4214041;28;20101;-34
2021/12/21 03:40:31;;;;;;;0.25;0.10;;;;;;;;;;4196243;28;20048;-33
2021/12/21 03:42:33;;;;;;;0.73;0.28;;;;;;;;;;4214243;28;20145;-34
2021/12/21 03:44:34;;;;;;;0.20;0.10;;;;;;;;;;4196343;28;20048;-34
2021/12/21 03:46:36;;;;;;;0.28;0.10;;;;;;;;;;4213605;28;20549;-34
2021/12/21 03:48:38;;;;;;;0.25;0.20;;;;;;;;;;4214493;28;20044;-34
2021/12/21 03:50:39;;;;;;;0.15;0.15;;;;;;;;;;4214207;28;20389;-34
2021/12/21 03:52:40;;;;;;;0.20;0.17;;;;;;;;;;4213662;28;20048;-34
2021/12/21 03:54:42;;;;;;;0.10;0.10;;;;;;;;;;4214371;28;20109;-35
2021/12/21 03:56:48;;;;;;;0.10;0.10;;;;;;;;;;4213985;28;20048;-34
2021/12/21 03:58:49;;;;;;;0.25;0.20;;;;;;;;;;4214445;28;20044;-34
2021/12/21 04:00:50;;;;;;;0.20;0.10;;;;;;;;;;4196420;28;20044;-35
2021/12/21 04:02:51;;;;;;;0.28;0.15;;;;;;;;;;4213965;28;20135;-34
2021/12/21 04:04:53;;;;;;;0.20;0.10;;;;;;;;;;4196002;28;20048;-35
2021/12/21 04:06:54;;;;;;;0.20;0.20;;;;;;;;;;4213449;28;20113;-35
2021/12/21 04:08:55;;;;;;;0.25;0.10;;;;;;;;;;4214080;28;20113;-34
2021/12/21 04:10:57;;;;;;;0.10;0.10;;;;;;;;;;4214036;28;20056;-34
2021/12/21 04:12:58;;;;;;;0.20;0.20;;;;;;;;;;4213807;28;20165;-34
2021/12/21 04:15:00;;;;;;;0.10;0.10;;;;;;;;;;4213897;28;20193;-35
2021/12/21 04:17:01;;;;;;;0.20;0.10;;;;;;;;;;4214079;28;20052;-34
2021/12/21 04:19:02;;;;;;;0.13;0.10;;;;;;;;;;4213867;28;20060;-34
2021/12/21 04:21:04;;;;;;;0.30;0.20;;;;;;;;;;4213691;28;20487;-34
2021/12/21 04:23:06;;;;;;;0.20;0.05;;;;;;;;;;4213032;28;20051;-34
2021/12/21 04:25:07;;;;;;;0.10;0.10;;;;;;;;;;4213985;28;20055;-34
2021/12/21 04:27:08;;;;;;;0.10;0.10;;;;;;;;;;4188863;28;20405;-34
2021/12/21 04:29:10;;;;;;;0.43;0.10;;;;;;;;;;4197341;28;20048;-34
2021/12/21 04:31:11;;;;;;;0.15;0.10;;;;;;;;;;4179223;28;20045;-34
2021/12/21 04:33:12;;;;;;;0.40;0.10;;;;;;;;;;4196866;28;20155;-34
2021/12/21 04:35:18;;;;;;;0.10;0.10;;;;;;;;;;4196947;28;20091;-34
2021/12/21 04:37:22;;;;;;;0.00;0.00;;;;;;;;;;4196450;28;20125;-34
2021/12/21 04:41:28;;;;;;;0.10;0.10;;;;;;;;;;4179213;28;20406;-35
2021/12/21 04:43:29;;;;;;;0.10;0.10;;;;;;;;;;4179001;28;20049;-34
2021/12/21 04:45:30;;;;;;;0.10;0.10;;;;;;;;;;4197141;28;20079;-34
2021/12/21 04:47:31;;;;;;;0.50;0.25;;;;;;;;;;4196737;28;20048;-34
2021/12/21 04:49:32;;;;;;;0.20;0.20;;;;;;;;;;4196775;28;20117;-35
2021/12/21 04:51:33;;;;;;;0.10;0.10;;;;;;;;;;4196839;28;20095;-34
2021/12/21 04:53:34;;;;;;;0.32;0.20;;;;;;;;;;4196438;28;20052;-35
2021/12/21 04:55:35;;;;;;;0.13;0.10;;;;;;;;;;4196757;28;20098;-35
2021/12/21 04:57:36;;;;;;;0.10;0.10;;;;;;;;;;4196708;28;20048;-34
2021/12/21 04:59:37;;;;;;;0.25;0.10;;;;;;;;;;4200053;28;20054;-34
2021/12/21 05:01:38;;;;;;;0.10;0.10;;;;;;;;;;4182222;28;20057;-34
2021/12/21 05:03:39;;;;;;;0.17;0.17;;;;;;;;;;4200060;28;20101;-34
2021/12/21 05:05:40;;;;;;;0.10;0.10;;;;;;;;;;4200024;28;20326;-34
2021/12/21 05:07:44;;;;;;;0.20;0.13;;;;;;;;;;4199607;28;20090;-35
2021/12/21 05:09:50;;;;;;;0.63;0.20;;;;;;;;;;4200275;28;20052;-34
2021/12/21 05:11:53;;;;;;;0.10;0.10;;;;;;;;;;4199849;28;20110;-33
2021/12/21 05:13:54;;;;;;;0.00;0.00;;;;;;;;;;4199809;28;20060;-34
2021/12/21 05:15:56;;;;;;;0.13;0.10;;;;;;;;;;4199972;28;20048;-34
2021/12/21 05:17:57;;;;;;;0.10;0.10;;;;;;;;;;4199891;28;20059;-33
2021/12/21 05:19:57;;;;;;;0.10;0.10;;;;;;;;;;4199864;28;20070;-33
2021/12/21 05:21:58;;;;;;;0.20;0.10;;;;;;;;;;4199158;28;20197;-33
2021/12/21 05:23:59;;;;;;;0.08;0.08;;;;;;;;;;4197397;28;20053;-34
2021/12/21 05:26:00;;;;;;;0.22;0.10;;;;;;;;;;4199858;28;20048;-34
2021/12/21 05:28:02;;;;;;;0.20;0.10;;;;;;;;;;4198690;28;20052;-34
2021/12/21 05:30:03;;;;;;;0.10;0.10;;;;;;;;;;4199747;28;20040;-34
2021/12/21 05:32:05;;;;;;;0.10;0.10;;;;;;;;;;4199687;28;20052;-34
2021/12/21 05:34:06;;;;;;;0.32;0.20;;;;;;;;;;4199792;28;20094;-34
2021/12/21 05:36:07;;;;;;;0.45;0.10;;;;;;;;;;4199574;28;20053;-34
2021/12/21 05:38:09;;;;;;;0.10;0.10;;;;;;;;;;4199269;28;20477;-35
2021/12/21 05:40:13;;;;;;;0.10;0.10;;;;;;;;;;4199926;28;20102;-34
2021/12/21 05:42:14;;;;;;;0.38;0.20;;;;;;;;;;4198264;28;20079;-35
2021/12/21 05:44:15;;;;;;;0.45;0.20;;;;;;;;;;4198586;28;20130;-35
2021/12/21 05:46:16;;;;;;;0.10;0.10;;;;;;;;;;4199352;28;20056;-34
2021/12/21 05:48:17;;;;;;;0.20;0.20;;;;;;;;;;4199370;28;20090;-35
2021/12/21 05:50:19;;;;;;;0.35;0.10;;;;;;;;;;4199626;28;20092;-34
2021/12/21 05:52:20;;;;;;;0.40;0.20;;;;;;;;;;4199200;28;20106;-35
2021/12/21 05:54:22;;;;;;;1.48;0.63;;;;;;;;;;4198319;28;20056;-35
2021/12/21 05:56:22;;;;;;;0.17;0.17;;;;;;;;;;4199300;28;20093;-34
2021/12/21 05:58:24;;;;;;;0.47;0.20;;;;;;;;;;4197823;28;20053;-35
2021/12/21 06:00:26;;;;;;;1.52;0.20;;;;;;;;;;4197927;28;20065;-34
2021/12/21 06:02:27;;;;;;;1.33;0.22;;;;;;;;;;4199078;28;20511;-34
2021/12/21 06:04:28;;;;;;;0.90;0.20;;;;;;;;;;4199088;28;20062;-35
2021/12/21 06:06:31;;;;;;;0.52;0.20;;;;;;;;;;4199025;28;20059;-34
2021/12/21 06:08:32;;;;;;;0.30;0.20;;;;;;;;;;4198658;28;20044;-35
2021/12/21 06:10:37;;;;;;;0.57;0.20;;;;;;;;;;4196954;28;20550;-35
2021/12/21 06:13:09;;;;;;;0.45;0.20;;;;;;;;;;4197675;28;20484;-35
2021/12/21 06:26:02;;;;;;;0.32;0.20;;;;;;;;;;4215396;28;20056;-34
2021/12/21 06:28:12;;;;;;;0.85;0.30;;;;;;;;;;4215674;28;20111;-34
2021/12/21 06:30:13;;;;;;;0.20;0.10;;;;;;;;;;4197631;28;20086;-34
2021/12/21 06:32:14;;;;;;;0.32;0.20;;;;;;;;;;4213506;28;20051;-34
2021/12/21 06:34:15;;;;;;;1.00;0.20;;;;;;;;;;4202536;28;20411;-34
2021/12/21 06:36:16;;;;;;;1.95;0.30;;;;;;;;;;4204487;28;20052;-34
2021/12/21 06:38:17;;;;;;;1.23;0.30;;;;;;;;;;4207174;28;20057;-34
2021/12/21 06:40:19;;;;;;;0.73;0.20;;;;;;;;;;4194632;28;20044;-34
2021/12/21 06:42:20;;;;;;;0.28;0.20;;;;;;;;;;4211475;28;20056;-34
2021/12/21 06:44:21;;;;;;;1.13;0.30;;;;;;;;;;4211255;28;20428;-35
2021/12/21 06:53:13;;;;;;;0.52;0.30;;;;;;;;;;4211670;28;20040;-34
2021/12/21 06:55:14;;;;;;;1.75;0.20;;;;;;;;;;4214482;28;20054;-35
2021/12/21 06:57:15;;;;;;;0.28;0.17;;;;;;;;;;4210056;28;20052;-34
2021/12/21 06:59:16;;;;;;;0.57;0.35;;;;;;;;;;4213472;28;20391;-35
2021/12/21 07:01:19;;;;;;;0.50;0.20;;;;;;;;;;4211625;28;20097;-34
2021/12/21 07:03:20;;;;;;;1.73;0.40;;;;;;;;;;4214286;28;20055;-34
2021/12/21 07:05:21;;;;;;;0.30;0.13;;;;;;;;;;4193011;28;20504;-34
2021/12/21 07:07:23;;;;;;;0.52;0.20;;;;;;;;;;4212917;28;20052;-34
2021/12/21 07:09:37;;;;;;;0.45;0.10;;;;;;;;;;4210429;28;20113;-34
2021/12/21 07:11:44;;;;;;;0.65;0.30;;;;;;;;;;4210614;28;20051;-34
2021/12/21 07:18:29;;;;;;;0.65;0.30;;;;;;;;;;4212447;28;20101;-34
2021/12/21 07:20:30;;;;;;;0.70;0.25;;;;;;;;;;4209434;28;20098;-34
2021/12/21 07:22:31;;;;;;;1.85;0.35;;;;;;;;;;4209881;28;20082;-34
2021/12/21 07:24:32;;;;;;;0.30;0.20;;;;;;;;;;4194126;28;20056;-34
2021/12/21 07:26:33;;;;;;;1.52;0.20;;;;;;;;;;4192971;28;20110;-34
2021/12/21 07:28:34;;;;;;;0.30;0.20;;;;;;;;;;4192732;28;20136;-34
2021/12/21 07:30:35;;;;;;;0.30;0.20;;;;;;;;;;4187149;28;20052;-34
2021/12/21 07:32:37;;;;;;;0.70;0.40;;;;;;;;;;4174181;28;20558;-33
2021/12/21 07:34:38;;;;;;;0.98;0.47;;;;;;;;;;4188596;28;20087;-34
2021/12/21 07:36:42;;;;;;;0.47;0.20;;;;;;;;;;4197511;28;20079;-33
2021/12/21 07:38:43;;;;;;;0.50;0.20;;;;;;;;;;4192958;28;20074;-34
2021/12/21 07:40:45;;;;;;;0.47;0.30;;;;;;;;;;4189086;28;20048;-34
2021/12/21 07:42:46;;;;;;;0.10;0.10;;;;;;;;;;4192038;28;20059;-34
2021/12/21 07:44:48;;;;;;;0.88;0.20;;;;;;;;;;4194845;28;20063;-34
2021/12/21 07:46:49;;;;;;;0.30;0.20;;;;;;;;;;4191163;28;20044;-34
2021/12/21 07:48:49;;;;;;;1.10;0.20;;;;;;;;;;4190074;28;20087;-34
2021/12/21 07:50:51;;;;;;;0.30;0.20;;;;;;;;;;4191228;28;20086;-35
2021/12/21 07:52:54;;;;;;;1.17;0.47;;;;;;;;;;4195239;28;20040;-34
2021/12/21 07:54:55;;;;;;;0.68;0.20;;;;;;;;;;4189629;28;20204;-36
2021/12/21 07:56:56;;;;;;;1.10;0.40;;;;;;;;;;4192917;28;20589;-33
2021/12/21 07:58:57;;;;;;;0.35;0.15;;;;;;;;;;4174968;28;20443;-34
2021/12/21 08:00:59;;;;;;;0.20;0.15;;;;;;;;;;4192604;28;20598;-34
2021/12/21 08:03:00;;;;;;;0.30;0.20;;;;;;;;;;4189835;28;20350;-34
2021/12/21 08:05:05;;;;;;;1.08;0.30;;;;;;;;;;4190369;28;20507;-34
2021/12/21 08:07:11;;;;;;;0.28;0.17;;;;;;;;;;4175519;28;20083;-34
2021/12/21 08:09:12;;;;;;;1.30;0.30;;;;;;;;;;4193035;28;20057;-34
2021/12/21 08:11:28;;;;;;;0.55;0.20;;;;;;;;;;4198580;28;20056;-33
2021/12/21 08:13:29;;;;;;;1.48;0.20;;;;;;;;;;4183376;28;20098;-33
2021/12/21 08:15:31;;;;;;;0.10;0.10;;;;;;;;;;4189483;28;20048;-34
2021/12/21 08:17:32;;;;;;;0.20;0.20;;;;;;;;;;4194213;28;20044;-34
2021/12/21 08:19:33;;;;;;;0.40;0.20;;;;;;;;;;4206223;28;20078;-34
2021/12/21 08:21:34;;;;;;;0.20;0.20;;;;;;;;;;4193046;28;20052;-33
2021/12/21 08:23:35;;;;;;;0.30;0.30;;;;;;;;;;4204508;28;20179;-33
2021/12/21 08:25:36;;;;;;;0.40;0.30;;;;;;;;;;4205018;28;20888;-33
2021/12/21 08:27:37;;;;;;;0.20;0.20;;;;;;;;;;4204223;28;20052;-35
2021/12/21 08:29:38;;;;;;;2.08;0.40;;;;;;;;;;4205116;28;20105;-33
2021/12/21 08:31:39;;;;;;;1.70;0.20;;;;;;;;;;4206011;28;20051;-33
2021/12/21 08:33:41;;;;;;;0.30;0.30;;;;;;;;;;4208848;28;20359;-34
2021/12/21 08:35:44;;;;;;;0.30;0.20;;;;;;;;;;4205328;28;20060;-34
2021/12/21 08:37:51;;;;;;;0.52;0.30;;;;;;;;;;4211447;28;20067;-34
2021/12/21 08:39:52;;;;;;;0.28;0.17;;;;;;;;;;4217414;28;20093;-33
2021/12/21 08:41:58;;;;;;;0.47;0.30;;;;;;;;;;4209112;28;20049;-33
2021/12/21 08:43:59;;;;;;;0.13;0.13;;;;;;;;;;4212895;28;20044;-33
2021/12/21 08:46:00;;;;;;;0.60;0.20;;;;;;;;;;4207406;28;20089;-33
2021/12/21 08:48:01;;;;;;;0.30;0.22;;;;;;;;;;4203785;28;20433;-33
2021/12/21 08:50:07;;;;;;;0.98;0.20;;;;;;;;;;4212724;28;20384;-34
2021/12/21 08:52:08;;;;;;;0.32;0.25;;;;;;;;;;4203221;28;20074;-33
2021/12/21 08:54:11;;;;;;;0.20;0.20;;;;;;;;;;4210149;28;20428;-33
2021/12/21 08:56:12;;;;;;;0.70;0.30;;;;;;;;;;4207134;28;20101;-33
2021/12/21 08:58:14;;;;;;;0.40;0.30;;;;;;;;;;4207367;28;20055;-33
2021/12/21 09:00:15;;;;;;;0.47;0.20;;;;;;;;;;4209789;28;20377;-33
2021/12/21 09:02:16;;;;;;;0.30;0.28;;;;;;;;;;4208667;28;20515;-34
2021/12/21 09:04:21;;;;;;;1.20;0.30;;;;;;;;;;4208872;28;20059;-33
2021/12/21 09:06:23;;;;;;;0.82;0.35;;;;;;;;;;4205508;28;20424;-34
2021/12/21 09:08:24;;;;;;;1.33;0.38;;;;;;;;;;4208428;28;20947;-34
2021/12/21 09:10:26;;;;;;;0.80;0.28;;;;;;;;;;4210312;28;20090;-34
2021/12/21 09:12:27;;;;;;;0.77;0.40;;;;;;;;;;4208328;28;20695;-34
2021/12/21 09:14:31;;;;;;;1.08;0.30;;;;;;;;;;4209723;28;20046;-34
2021/12/21 09:16:33;;;;;;;0.32;0.28;;;;;;;;;;4208295;28;20063;-34
2021/12/21 09:18:34;;;;;;;2.65;0.20;;;;;;;;;;4210838;28;20474;-34
2021/12/21 09:20:36;;;;;;;0.50;0.30;;;;;;;;;;4211016;28;20063;-33
2021/12/21 09:22:37;;;;;;;3.25;0.45;;;;;;;;;;4207373;28;20048;-33
2021/12/21 09:24:38;;;;;;;0.63;0.45;;;;;;;;;;4208127;28;20097;-33
2021/12/21 09:26:38;;;;;;;1.92;0.30;;;;;;;;;;4206778;28;20079;-33
2021/12/21 09:28:39;;;;;;;4.10;0.43;;;;;;;;;;4193017;28;20052;-34
2021/12/21 09:30:41;;;;;;;0.95;0.20;;;;;;;;;;4194927;28;20107;-34
2021/12/21 09:32:42;;;;;;;0.47;0.25;;;;;;;;;;4208551;28;20048;-34
2021/12/21 09:34:44;;;;;;;0.57;0.30;;;;;;;;;;4222262;28;20069;-34
2021/12/21 09:36:45;;;;;;;0.80;0.22;;;;;;;;;;4209086;28;20385;-34
2021/12/21 09:38:46;;;;;;;1.02;0.45;;;;;;;;;;4207635;28;20124;-34
2021/12/21 09:40:47;;;;;;;1.40;0.40;;;;;;;;;;4206586;28;20090;-34
2021/12/21 09:42:48;;;;;;;0.52;0.30;;;;;;;;;;4174335;28;20277;-34
2021/12/21 09:44:49;;;;;;;1.30;0.28;;;;;;;;;;4212421;28;20206;-35
2021/12/21 09:46:50;;;;;;;0.50;0.40;;;;;;;;;;4211501;28;20055;-34
2021/12/21 09:48:51;;;;;;;0.32;0.30;;;;;;;;;;4213431;28;20090;-34
2021/12/21 09:50:52;;;;;;;0.85;0.30;;;;;;;;;;4211848;28;20434;-35
2021/12/21 09:52:54;;;;;;;0.50;0.22;;;;;;;;;;4218373;28;20051;-34
2021/12/21 09:54:56;;;;;;;1.27;0.50;;;;;;;;;;4209556;28;21496;-33
2021/12/21 09:56:57;;;;;;;1.00;0.30;;;;;;;;;;4216475;28;20397;-34
2021/12/21 09:58:58;;;;;;;1.02;0.30;;;;;;;;;;4176834;28;20052;-34
2021/12/21 10:00:59;;;;;;;0.57;0.30;;;;;;;;;;4210474;28;21005;-34
2021/12/21 10:03:04;;;;;;;1.00;0.30;;;;;;;;;;4208890;28;20586;-34
2021/12/21 10:05:07;;;;;;;0.88;0.50;;;;;;;;;;4208563;28;20052;-34
2021/12/21 10:07:09;;;;;;;1.90;0.38;;;;;;;;;;4211023;28;20426;-33
2021/12/21 10:09:10;;;;;;;3.75;0.38;;;;;;;;;;4223614;28;20314;-33
2021/12/21 10:11:19;;;;;;;1.05;0.38;;;;;;;;;;4212212;28;20102;-34
2021/12/21 10:13:22;;;;;;;0.70;0.30;;;;;;;;;;4211689;28;20052;-34
2021/12/21 10:15:23;;;;;;;0.30;0.20;;;;;;;;;;4214795;28;20051;-34
2021/12/21 10:17:25;;;;;;;0.32;0.20;;;;;;;;;;4203438;28;20594;-33
2021/12/21 10:19:26;;;;;;;0.55;0.38;;;;;;;;;;4207414;28;20064;-33
2021/12/21 10:21:27;;;;;;;0.32;0.30;;;;;;;;;;4209821;28;20479;-33
2021/12/21 10:23:44;;;;;;;0.85;0.40;;;;;;;;;;4207101;28;20114;-34
2021/12/21 10:25:47;;;;;;;0.30;0.30;;;;;;;;;;4210806;28;20459;-34
2021/12/21 10:27:49;;;;;;;0.68;0.40;;;;;;;;;;4212995;28;20040;-34
2021/12/21 10:29:55;;;;;;;0.80;0.40;;;;;;;;;;4213494;28;20040;-34
2021/12/21 10:31:55;;;;;;;0.30;0.30;;;;;;;;;;4212615;28;20056;-34
2021/12/21 10:33:58;;;;;;;0.43;0.30;;;;;;;;;;4213852;28;20048;-33
2021/12/21 10:36:01;;;;;;;0.32;0.22;;;;;;;;;;4195516;28;20135;-33
2021/12/21 10:38:04;;;;;;;0.30;0.30;;;;;;;;;;4212199;28;20500;-33
2021/12/21 10:40:17;;;;;;;0.30;0.30;;;;;;;;;;4213195;28;20166;-35
2021/12/21 10:42:18;;;;;;;0.65;0.40;;;;;;;;;;4213040;28;20060;-34
2021/12/21 10:44:19;;;;;;;1.40;0.40;;;;;;;;;;4228705;28;20094;-34
2021/12/21 10:46:21;;;;;;;0.57;0.30;;;;;;;;;;4230487;28;20051;-34
2021/12/21 10:48:23;;;;;;;0.30;0.30;;;;;;;;;;4228467;28;20127;-34
2021/12/21 10:50:24;;;;;;;0.75;0.28;;;;;;;;;;4208768;28;20044;-34
2021/12/21 10:52:25;;;;;;;1.60;0.40;;;;;;;;;;4202699;28;20048;-34
2021/12/21 10:54:28;;;;;;;1.15;0.28;;;;;;;;;;4209785;28;20477;-34
2021/12/21 10:56:28;;;;;;;0.30;0.30;;;;;;;;;;4206543;28;20419;-34
2021/12/21 10:58:30;;;;;;;0.30;0.30;;;;;;;;;;4188757;28;20130;-34
2021/12/21 11:00:31;;;;;;;1.35;0.30;;;;;;;;;;4211513;28;20056;-34
2021/12/21 11:02:34;;;;;;;1.13;0.30;;;;;;;;;;4191324;28;20057;-34
2021/12/21 11:04:40;;;;;;;1.58;0.25;;;;;;;;;;4208727;28;20052;-34
2021/12/21 11:06:48;;;;;;;0.40;0.35;;;;;;;;;;4209122;28;20040;-34
2021/12/21 11:08:49;;;;;;;1.33;0.25;;;;;;;;;;4212447;28;20048;-35
2021/12/21 11:10:51;;;;;;;0.77;0.35;;;;;;;;;;4210722;28;20673;-34
2021/12/21 11:12:52;;;;;;;1.85;0.30;;;;;;;;;;4208418;28;20044;-34
2021/12/21 11:14:55;;;;;;;1.30;0.30;;;;;;;;;;4193236;28;20159;-34
2021/12/21 11:16:56;;;;;;;3.25;0.60;;;;;;;;;;4210164;28;20125;-34
2021/12/21 11:18:57;;;;;;;1.52;0.63;;;;;;;;;;4212149;28;20052;-35
2021/12/21 11:20:58;;;;;;;0.60;0.40;;;;;;;;;;4214128;28;20132;-34
2021/12/21 11:22:59;;;;;;;0.55;0.17;;;;;;;;;;4202953;28;20442;-35
2021/12/21 11:25:00;;;;;;;1.70;0.40;;;;;;;;;;4190413;28;20523;-35
2021/12/21 11:27:01;;;;;;;0.50;0.40;;;;;;;;;;4197843;28;20083;-35
2021/12/21 11:29:07;;;;;;;0.60;0.30;;;;;;;;;;4200393;28;20052;-34
2021/12/21 11:31:09;;;;;;;0.70;0.35;;;;;;;;;;4195507;28;20095;-34
2021/12/21 11:33:11;;;;;;;0.25;0.25;;;;;;;;;;4196153;28;20040;-34
2021/12/21 11:37:23;;;;;;;1.50;0.40;;;;;;;;;;4189044;28;20048;-34
2021/12/21 11:39:28;;;;;;;0.40;0.40;;;;;;;;;;4191883;28;20794;-34
2021/12/21 11:41:30;;;;;;;0.52;0.47;;;;;;;;;;4193851;28;20048;-34
2021/12/21 11:43:34;;;;;;;0.52;0.30;;;;;;;;;;4203052;28;20480;-34
2021/12/21 11:45:37;;;;;;;1.25;0.40;;;;;;;;;;4190215;28;20063;-35
2021/12/21 11:47:46;;;;;;;0.40;0.30;;;;;;;;;;4195385;28;20366;-34
2021/12/21 11:49:49;;;;;;;0.40;0.20;;;;;;;;;;4196891;28;20048;-35
2021/12/21 11:51:50;;;;;;;0.40;0.38;;;;;;;;;;4193129;28;20052;-35
2021/12/21 11:53:52;;;;;;;0.55;0.40;;;;;;;;;;4190336;28;20052;-34
2021/12/21 11:55:54;;;;;;;0.70;0.43;;;;;;;;;;4191809;28;20168;-34
2021/12/21 11:57:56;;;;;;;0.47;0.38;;;;;;;;;;4190037;28;20063;-34
2021/12/21 12:00:05;;;;;;;0.60;0.45;;;;;;;;;;4195122;28;20044;-34
2021/12/21 12:02:14;;;;;;;0.30;0.20;;;;;;;;;;4194113;28;20438;-34
2021/12/21 12:04:15;;;;;;;0.52;0.35;;;;;;;;;;4194616;28;20052;-34
2021/12/21 12:06:16;;;;;;;0.35;0.30;;;;;;;;;;4192105;28;20060;-33
2021/12/21 12:08:17;;;;;;;0.25;0.25;;;;;;;;;;4191024;28;20048;-34
2021/12/21 12:10:19;;;;;;;0.55;0.30;;;;;;;;;;4175928;28;20095;-33
2021/12/21 12:12:27;;;;;;;0.22;0.22;;;;;;;;;;4192854;28;20102;-34
2021/12/21 12:14:28;;;;;;;0.38;0.32;;;;;;;;;;4177686;28;20492;-34
2021/12/21 12:16:38;;;;;;;0.60;0.40;;;;;;;;;;4174847;28;20174;-34
2021/12/21 12:18:41;;;;;;;0.60;0.50;;;;;;;;;;4193855;28;20059;-33
2021/12/21 12:20:42;;;;;;;0.50;0.40;;;;;;;;;;4194706;28;20052;-33
2021/12/21 12:22:44;;;;;;;0.60;0.50;;;;;;;;;;4199602;28;20059;-33
2021/12/21 12:24:47;;;;;;;0.77;0.45;;;;;;;;;;4215725;28;20115;-33
2021/12/21 12:26:56;;;;;;;0.98;0.35;;;;;;;;;;4207787;28;20492;-34
2021/12/21 12:29:09;;;;;;;0.83;0.47;;;;;;;;;;4213688;28;20047;-33
2021/12/21 12:31:10;;;;;;;0.85;0.50;;;;;;;;;;4207609;28;20472;-33
2021/12/21 12:33:11;;;;;;;0.40;0.30;;;;;;;;;;4221413;28;20044;-34
2021/12/21 12:35:12;;;;;;;0.73;0.40;;;;;;;;;;4209115;28;20519;-35
2021/12/21 12:37:18;;;;;;;0.73;0.40;;;;;;;;;;4207503;28;20104;-34
2021/12/21 12:39:46;;;;;;;0.52;0.50;;;;;;;;;;4206012;28;20125;-33
2021/12/21 12:41:47;;;;;;;0.52;0.40;;;;;;;;;;4206652;28;20442;-35
2021/12/21 12:43:48;;;;;;;0.45;0.30;;;;;;;;;;4210726;28;20040;-34
2021/12/21 12:45:51;;;;;;;0.30;0.30;;;;;;;;;;4208752;28;20108;-34
2021/12/21 12:47:53;;;;;;;0.88;0.40;;;;;;;;;;4214772;28;20119;-34
2021/12/21 12:49:55;;;;;;;0.50;0.30;;;;;;;;;;4213970;28;20056;-35
2021/12/21 12:52:12;;;;;;;1.27;0.40;;;;;;;;;;4206875;28;20048;-35
2021/12/21 12:54:14;;;;;;;0.93;0.30;;;;;;;;;;4208678;28;20377;-34
2021/12/21 12:56:15;;;;;;;1.00;0.40;;;;;;;;;;4206157;28;20044;-34
2021/12/21 12:58:20;;;;;;;2.13;0.38;;;;;;;;;;4207262;28;20145;-34
2021/12/21 13:00:26;;;;;;;0.38;0.38;;;;;;;;;;4203729;28;20047;-34
2021/12/21 13:02:28;;;;;;;0.45;0.30;;;;;;;;;;4207706;28;20051;-34
2021/12/21 13:04:28;;;;;;;0.40;0.40;;;;;;;;;;4206037;28;20492;-35
2021/12/21 13:06:31;;;;;;;0.45;0.30;;;;;;;;;;4206407;28;20048;-34
2021/12/21 13:08:32;;;;;;;0.40;0.30;;;;;;;;;;4205414;28;20105;-34
2021/12/21 13:10:35;;;;;;;0.55;0.40;;;;;;;;;;4204338;28;20052;-34
2021/12/21 13:12:36;;;;;;;0.47;0.40;;;;;;;;;;4205224;28;20062;-34